sensor_id;sensor_type;location;lat;lon;timestamp;pressure;altitude;pressure_sealevel;temperature;humidity
10310;BME280;5200;43.236;27.986;2023-02-26T00:02:18;98964.94;;;12.38;92.45
10310;BME280;5200;43.236;27.986;2023-02-26T00:04:46;98997.19;;;12.48;93.38
10310;BME280;5200;43.236;27.986;2023-02-26T00:07:13;98996.56;;;12.46;93.97
10310;BME280;5200;43.236;27.986;2023-02-26T00:09:40;98967.16;;;12.26;94.69
10310;BME280;5200;43.236;27.986;2023-02-26T00:12:10;98978.38;;;12.29;95.25
10310;BME280;5200;43.236;27.986;2023-02-26T00:14:37;98985.75;;;12.33;96.05
10310;BME280;5200;43.236;27.986;2023-02-26T00:17:31;98968.34;;;12.24;96.62
10310;BME280;5200;43.236;27.986;2023-02-26T00:20:01;98961.63;;;12.13;97.93
10310;BME280;5200;43.236;27.986;2023-02-26T00:22:29;98961.44;;;12.23;99.20
10310;BME280;5200;43.236;27.986;2023-02-26T00:24:56;98972.66;;;12.17;98.83
10310;BME280;5200;43.236;27.986;2023-02-26T00:27:23;98968.91;;;12.11;99.04
10310;BME280;5200;43.236;27.986;2023-02-26T00:29:50;98989.44;;;12.24;99.26
10310;BME280;5200;43.236;27.986;2023-02-26T00:32:17;98986.81;;;12.16;99.55
10310;BME280;5200;43.236;27.986;2023-02-26T00:34:45;98987.66;;;12.16;100.00
10310;BME280;5200;43.236;27.986;2023-02-26T00:37:26;98967.94;;;12.04;100.00
10310;BME280;5200;43.236;27.986;2023-02-26T00:40:02;98958.75;;;12.00;100.00
10310;BME280;5200;43.236;27.986;2023-02-26T00:42:33;98969.94;;;12.02;100.00
10310;BME280;5200;43.236;27.986;2023-02-26T00:45:01;98987.31;;;12.19;100.00
10310;BME280;5200;43.236;27.986;2023-02-26T00:47:32;98960.00;;;12.12;100.00
10310;BME280;5200;43.236;27.986;2023-02-26T00:50:08;98975.44;;;12.23;100.00
10310;BME280;5200;43.236;27.986;2023-02-26T00:52:45;98960.94;;;12.19;100.00
10310;BME280;5200;43.236;27.986;2023-02-26T00:55:16;98961.59;;;12.21;100.00
10310;BME280;5200;43.236;27.986;2023-02-26T00:57:43;98967.53;;;12.23;100.00
10310;BME280;5200;43.236;27.986;2023-02-26T01:00:12;98938.56;;;12.15;100.00
10310;BME280;5200;43.236;27.986;2023-02-26T01:02:40;98930.00;;;12.13;100.00
10310;BME280;5200;43.236;27.986;2023-02-26T01:05:08;98948.97;;;12.09;100.00
10310;BME280;5200;43.236;27.986;2023-02-26T01:07:41;98964.25;;;12.21;100.00
10310;BME280;5200;43.236;27.986;2023-02-26T01:10:11;98969.16;;;12.24;100.00
10310;BME280;5200;43.236;27.986;2023-02-26T01:12:38;98962.63;;;12.12;100.00
10310;BME280;5200;43.236;27.986;2023-02-26T01:15:06;98952.75;;;12.14;100.00
10310;BME280;5200;43.236;27.986;2023-02-26T01:17:39;98969.50;;;12.21;100.00
10310;BME280;5200;43.236;27.986;2023-02-26T01:20:15;98952.88;;;12.21;100.00
10310;BME280;5200;43.236;27.986;2023-02-26T01:22:49;98962.25;;;12.23;100.00
10310;BME280;5200;43.236;27.986;2023-02-26T01:25:22;98964.88;;;12.23;100.00
10310;BME280;5200;43.236;27.986;2023-02-26T01:27:50;98943.22;;;12.05;100.00
10310;BME280;5200;43.236;27.986;2023-02-26T01:30:18;98923.13;;;12.04;100.00
10310;BME280;5200;43.236;27.986;2023-02-26T01:32:49;98933.63;;;12.12;100.00
10310;BME280;5200;43.236;27.986;2023-02-26T01:35:31;98939.03;;;12.19;100.00
10310;BME280;5200;43.236;27.986;2023-02-26T01:38:09;98945.13;;;12.19;100.00
10310;BME280;5200;43.236;27.986;2023-02-26T01:41:06;98911.88;;;12.10;100.00
10310;BME280;5200;43.236;27.986;2023-02-26T01:43:41;98908.78;;;12.07;100.00
10310;BME280;5200;43.236;27.986;2023-02-26T01:46:16;98915.19;;;12.12;100.00
10310;BME280;5200;43.236;27.986;2023-02-26T01:48:48;98903.97;;;12.10;100.00
10310;BME280;5200;43.236;27.986;2023-02-26T01:51:16;98915.34;;;12.11;100.00
10310;BME280;5200;43.236;27.986;2023-02-26T01:53:44;98930.25;;;12.26;100.00
10310;BME280;5200;43.236;27.986;2023-02-26T01:56:14;98946.06;;;12.26;100.00
10310;BME280;5200;43.236;27.986;2023-02-26T01:58:43;98923.22;;;12.19;100.00
10310;BME280;5200;43.236;27.986;2023-02-26T02:01:11;98935.16;;;12.30;100.00
10310;BME280;5200;43.236;27.986;2023-02-26T02:03:39;98945.38;;;12.33;100.00
10310;BME280;5200;43.236;27.986;2023-02-26T02:06:08;98946.66;;;12.37;100.00
10310;BME280;5200;43.236;27.986;2023-02-26T02:08:36;98948.16;;;12.39;100.00
10310;BME280;5200;43.236;27.986;2023-02-26T02:11:06;98925.56;;;12.37;100.00
10310;BME280;5200;43.236;27.986;2023-02-26T02:13:45;98938.22;;;12.41;100.00
10310;BME280;5200;43.236;27.986;2023-02-26T02:16:20;98946.09;;;12.50;100.00
10310;BME280;5200;43.236;27.986;2023-02-26T02:18:57;98953.84;;;12.51;100.00
10310;BME280;5200;43.236;27.986;2023-02-26T02:21:48;98948.19;;;12.54;100.00
10310;BME280;5200;43.236;27.986;2023-02-26T02:24:23;98954.28;;;12.55;100.00
10310;BME280;5200;43.236;27.986;2023-02-26T02:27:00;98955.75;;;12.57;100.00
10310;BME280;5200;43.236;27.986;2023-02-26T02:29:59;98920.88;;;12.47;100.00
10310;BME280;5200;43.236;27.986;2023-02-26T02:32:34;98923.53;;;12.47;100.00
10310;BME280;5200;43.236;27.986;2023-02-26T02:35:08;98956.88;;;12.63;100.00
10310;BME280;5200;43.236;27.986;2023-02-26T02:37:42;98958.03;;;12.60;100.00
10310;BME280;5200;43.236;27.986;2023-02-26T02:40:14;98930.00;;;12.36;100.00
10310;BME280;5200;43.236;27.986;2023-02-26T02:42:45;98969.13;;;12.56;100.00
10310;BME280;5200;43.236;27.986;2023-02-26T02:45:19;98953.13;;;12.57;100.00
10310;BME280;5200;43.236;27.986;2023-02-26T02:47:55;98954.97;;;12.48;100.00
10310;BME280;5200;43.236;27.986;2023-02-26T02:50:28;98979.88;;;12.54;100.00
10310;BME280;5200;43.236;27.986;2023-02-26T02:53:00;98972.50;;;12.41;100.00
10310;BME280;5200;43.236;27.986;2023-02-26T02:55:31;99015.84;;;12.47;100.00
10310;BME280;5200;43.236;27.986;2023-02-26T02:58:02;99012.31;;;12.32;100.00
10310;BME280;5200;43.236;27.986;2023-02-26T03:00:37;99020.88;;;12.34;100.00
10310;BME280;5200;43.236;27.986;2023-02-26T03:03:12;99024.31;;;12.34;100.00
10310;BME280;5200;43.236;27.986;2023-02-26T03:05:41;99040.34;;;12.33;100.00
10310;BME280;5200;43.236;27.986;2023-02-26T03:08:11;99030.09;;;12.30;100.00
10310;BME280;5200;43.236;27.986;2023-02-26T03:10:38;99029.28;;;12.29;100.00
10310;BME280;5200;43.236;27.986;2023-02-26T03:13:05;99025.53;;;12.23;100.00
10310;BME280;5200;43.236;27.986;2023-02-26T03:15:38;99034.44;;;12.22;100.00
10310;BME280;5200;43.236;27.986;2023-02-26T03:18:17;99026.53;;;12.22;100.00
10310;BME280;5200;43.236;27.986;2023-02-26T03:20:55;99046.63;;;12.23;100.00
10310;BME280;5200;43.236;27.986;2023-02-26T03:23:30;99023.63;;;12.09;100.00
10310;BME280;5200;43.236;27.986;2023-02-26T03:26:04;99022.78;;;12.09;100.00
10310;BME280;5200;43.236;27.986;2023-02-26T03:28:37;99042.84;;;12.26;100.00
10310;BME280;5200;43.236;27.986;2023-02-26T03:31:08;99049.56;;;12.29;100.00
10310;BME280;5200;43.236;27.986;2023-02-26T03:33:51;99058.16;;;12.31;100.00
10310;BME280;5200;43.236;27.986;2023-02-26T03:36:23;99043.81;;;12.25;100.00
10310;BME280;5200;43.236;27.986;2023-02-26T03:38:54;99033.81;;;12.12;100.00
10310;BME280;5200;43.236;27.986;2023-02-26T03:41:26;99022.78;;;12.09;100.00
10310;BME280;5200;43.236;27.986;2023-02-26T03:43:57;99067.75;;;12.23;100.00
10310;BME280;5200;43.236;27.986;2023-02-26T03:46:29;99037.47;;;12.11;100.00
10310;BME280;5200;43.236;27.986;2023-02-26T03:49:03;99049.59;;;12.20;100.00
10310;BME280;5200;43.236;27.986;2023-02-26T03:51:32;99065.41;;;12.29;100.00
10310;BME280;5200;43.236;27.986;2023-02-26T03:54:03;99070.19;;;12.25;100.00
10310;BME280;5200;43.236;27.986;2023-02-26T03:56:34;99074.19;;;12.21;100.00
10310;BME280;5200;43.236;27.986;2023-02-26T03:59:02;99061.00;;;12.13;100.00
10310;BME280;5200;43.236;27.986;2023-02-26T04:01:38;99036.16;;;12.07;100.00
10310;BME280;5200;43.236;27.986;2023-02-26T04:04:11;99071.53;;;12.21;100.00
10310;BME280;5200;43.236;27.986;2023-02-26T04:06:41;99048.47;;;12.15;100.00
10310;BME280;5200;43.236;27.986;2023-02-26T04:09:09;99085.34;;;12.31;100.00
10310;BME280;5200;43.236;27.986;2023-02-26T04:11:36;99083.81;;;12.37;100.00
10310;BME280;5200;43.236;27.986;2023-02-26T04:14:04;99065.06;;;12.32;100.00
10310;BME280;5200;43.236;27.986;2023-02-26T04:16:31;99072.00;;;12.33;100.00
10310;BME280;5200;43.236;27.986;2023-02-26T04:18:57;99091.56;;;12.46;100.00
10310;BME280;5200;43.236;27.986;2023-02-26T04:21:26;99099.56;;;12.53;100.00
10310;BME280;5200;43.236;27.986;2023-02-26T04:23:52;99101.22;;;12.54;100.00
10310;BME280;5200;43.236;27.986;2023-02-26T04:26:19;99100.88;;;12.57;100.00
10310;BME280;5200;43.236;27.986;2023-02-26T04:28:46;99084.44;;;12.47;100.00
10310;BME280;5200;43.236;27.986;2023-02-26T04:31:13;99112.75;;;12.61;100.00
10310;BME280;5200;43.236;27.986;2023-02-26T04:33:40;99097.78;;;12.54;100.00
10310;BME280;5200;43.236;27.986;2023-02-26T04:36:08;99107.47;;;12.61;100.00
10310;BME280;5200;43.236;27.986;2023-02-26T04:38:36;99117.97;;;12.69;100.00
10310;BME280;5200;43.236;27.986;2023-02-26T04:41:04;99103.16;;;12.60;100.00
10310;BME280;5200;43.236;27.986;2023-02-26T04:43:31;99101.47;;;12.67;100.00
10310;BME280;5200;43.236;27.986;2023-02-26T04:45:58;99099.84;;;12.66;100.00
10310;BME280;5200;43.236;27.986;2023-02-26T04:48:26;99125.34;;;12.82;100.00
10310;BME280;5200;43.236;27.986;2023-02-26T04:50:53;99121.25;;;12.72;100.00
10310;BME280;5200;43.236;27.986;2023-02-26T04:53:19;99137.72;;;12.82;100.00
10310;BME280;5200;43.236;27.986;2023-02-26T04:55:48;99139.66;;;12.88;100.00
10310;BME280;5200;43.236;27.986;2023-02-26T04:58:15;99111.31;;;12.82;100.00
10310;BME280;5200;43.236;27.986;2023-02-26T05:00:42;99124.16;;;12.85;100.00
10310;BME280;5200;43.236;27.986;2023-02-26T05:03:09;99127.75;;;12.92;100.00
10310;BME280;5200;43.236;27.986;2023-02-26T05:05:38;99140.94;;;12.92;100.00
10310;BME280;5200;43.236;27.986;2023-02-26T05:08:04;99155.09;;;12.99;100.00
10310;BME280;5200;43.236;27.986;2023-02-26T05:10:31;99163.03;;;12.99;100.00
10310;BME280;5200;43.236;27.986;2023-02-26T05:12:59;99158.09;;;12.96;100.00
10310;BME280;5200;43.236;27.986;2023-02-26T05:15:26;99154.16;;;12.92;100.00
10310;BME280;5200;43.236;27.986;2023-02-26T05:17:53;99187.91;;;13.05;100.00
10310;BME280;5200;43.236;27.986;2023-02-26T05:20:20;99194.03;;;13.05;100.00
10310;BME280;5200;43.236;27.986;2023-02-26T05:22:46;99192.19;;;13.06;100.00
10310;BME280;5200;43.236;27.986;2023-02-26T05:25:13;99182.38;;;12.92;100.00
10310;BME280;5200;43.236;27.986;2023-02-26T05:27:41;99201.97;;;12.97;100.00
10310;BME280;5200;43.236;27.986;2023-02-26T05:30:13;99222.75;;;13.00;100.00
10310;BME280;5200;43.236;27.986;2023-02-26T05:32:40;99219.94;;;13.02;100.00
10310;BME280;5200;43.236;27.986;2023-02-26T05:35:07;99219.47;;;12.98;100.00
10310;BME280;5200;43.236;27.986;2023-02-26T05:37:34;99224.75;;;12.98;100.00
10310;BME280;5200;43.236;27.986;2023-02-26T05:40:02;99217.50;;;12.92;100.00
10310;BME280;5200;43.236;27.986;2023-02-26T05:42:29;99202.03;;;12.81;100.00
10310;BME280;5200;43.236;27.986;2023-02-26T05:44:55;99206.66;;;12.79;100.00
10310;BME280;5200;43.236;27.986;2023-02-26T05:47:24;99226.75;;;12.88;100.00
10310;BME280;5200;43.236;27.986;2023-02-26T05:49:51;99226.75;;;12.88;100.00
10310;BME280;5200;43.236;27.986;2023-02-26T05:52:18;99225.28;;;12.85;100.00
10310;BME280;5200;43.236;27.986;2023-02-26T05:54:45;99225.28;;;12.85;100.00
10310;BME280;5200;43.236;27.986;2023-02-26T05:57:11;99221.84;;;12.85;100.00
10310;BME280;5200;43.236;27.986;2023-02-26T05:59:38;99223.50;;;12.78;100.00
10310;BME280;5200;43.236;27.986;2023-02-26T06:02:05;99225.78;;;12.89;100.00
10310;BME280;5200;43.236;27.986;2023-02-26T06:04:35;99191.84;;;12.78;100.00
10310;BME280;5200;43.236;27.986;2023-02-26T06:07:01;99206.81;;;12.85;100.00
10310;BME280;5200;43.236;27.986;2023-02-26T06:09:28;99222.63;;;12.94;100.00
10310;BME280;5200;43.236;27.986;2023-02-26T06:11:55;99228.03;;;13.00;100.00
10310;BME280;5200;43.236;27.986;2023-02-26T06:14:22;99209.94;;;12.89;100.00
10310;BME280;5200;43.236;27.986;2023-02-26T06:16:49;99238.91;;;13.05;100.00
10310;BME280;5200;43.236;27.986;2023-02-26T06:19:15;99182.91;;;12.87;100.00
10310;BME280;5200;43.236;27.986;2023-02-26T06:21:44;99206.28;;;12.98;100.00
10310;BME280;5200;43.236;27.986;2023-02-26T06:24:11;99225.66;;;13.14;100.00
10310;BME280;5200;43.236;27.986;2023-02-26T06:26:38;99217.97;;;13.04;100.00
10310;BME280;5200;43.236;27.986;2023-02-26T06:29:05;99235.53;;;13.20;100.00
10310;BME280;5200;43.236;27.986;2023-02-26T06:31:32;99214.16;;;13.06;100.00
10310;BME280;5200;43.236;27.986;2023-02-26T06:33:59;99203.88;;;13.11;99.47
10310;BME280;5200;43.236;27.986;2023-02-26T06:36:26;99208.34;;;13.11;99.28
10310;BME280;5200;43.236;27.986;2023-02-26T06:38:55;99225.44;;;13.23;99.27
10310;BME280;5200;43.236;27.986;2023-02-26T06:41:21;99221.03;;;13.16;98.92
10310;BME280;5200;43.236;27.986;2023-02-26T06:43:48;99221.03;;;13.16;98.10
10310;BME280;5200;43.236;27.986;2023-02-26T06:46:15;99211.63;;;13.13;97.14
10310;BME280;5200;43.236;27.986;2023-02-26T06:48:42;99236.00;;;13.31;96.85
10310;BME280;5200;43.236;27.986;2023-02-26T06:51:09;99242.09;;;13.32;96.29
10310;BME280;5200;43.236;27.986;2023-02-26T06:53:36;99250.50;;;13.36;95.62
10310;BME280;5200;43.236;27.986;2023-02-26T06:56:04;99212.44;;;13.22;95.24
10310;BME280;5200;43.236;27.986;2023-02-26T06:58:31;99219.19;;;13.24;94.49
10310;BME280;5200;43.236;27.986;2023-02-26T07:00:58;99249.81;;;13.42;94.36
10310;BME280;5200;43.236;27.986;2023-02-26T07:03:25;99221.31;;;13.29;94.14
10310;BME280;5200;43.236;27.986;2023-02-26T07:05:51;99222.47;;;13.26;93.67
10310;BME280;5200;43.236;27.986;2023-02-26T07:08:18;99272.72;;;13.49;93.38
10310;BME280;5200;43.236;27.986;2023-02-26T07:10:46;99268.06;;;13.51;93.19
10310;BME280;5200;43.236;27.986;2023-02-26T07:13:15;99290.03;;;13.52;93.30
10310;BME280;5200;43.236;27.986;2023-02-26T07:15:42;99290.53;;;13.56;93.23
10310;BME280;5200;43.236;27.986;2023-02-26T07:18:09;99249.34;;;13.38;92.87
10310;BME280;5200;43.236;27.986;2023-02-26T07:20:36;99270.84;;;13.58;92.98
10310;BME280;5200;43.236;27.986;2023-02-26T07:23:02;99262.13;;;13.49;92.48
10310;BME280;5200;43.236;27.986;2023-02-26T07:25:29;99270.19;;;13.56;92.47
10310;BME280;5200;43.236;27.986;2023-02-26T07:27:56;99284.88;;;13.59;92.66
10310;BME280;5200;43.236;27.986;2023-02-26T07:30:25;99292.66;;;13.60;92.09
10310;BME280;5200;43.236;27.986;2023-02-26T07:32:52;99282.88;;;13.61;91.98
10310;BME280;5200;43.236;27.986;2023-02-26T07:35:19;99296.59;;;13.64;91.56
10310;BME280;5200;43.236;27.986;2023-02-26T07:37:46;99276.66;;;13.53;91.57
10310;BME280;5200;43.236;27.986;2023-02-26T07:40:13;99274.16;;;13.60;91.32
10310;BME280;5200;43.236;27.986;2023-02-26T07:42:40;99309.50;;;13.82;90.60
10310;BME280;5200;43.236;27.986;2023-02-26T07:45:07;99294.28;;;13.84;89.74
10310;BME280;5200;43.236;27.986;2023-02-26T07:47:36;99304.84;;;13.92;88.95
10310;BME280;5200;43.236;27.986;2023-02-26T07:50:03;99289.81;;;13.85;88.24
10310;BME280;5200;43.236;27.986;2023-02-26T07:52:30;99298.38;;;13.95;88.44
10310;BME280;5200;43.236;27.986;2023-02-26T07:54:57;99291.25;;;13.95;88.15
10310;BME280;5200;43.236;27.986;2023-02-26T07:57:24;99308.22;;;14.01;87.99
10310;BME280;5200;43.236;27.986;2023-02-26T07:59:51;99302.75;;;14.03;87.84
10310;BME280;5200;43.236;27.986;2023-02-26T08:02:18;99276.97;;;14.05;87.40
10310;BME280;5200;43.236;27.986;2023-02-26T08:04:46;99292.84;;;14.05;86.79
10310;BME280;5200;43.236;27.986;2023-02-26T08:07:13;99304.88;;;14.07;86.75
10310;BME280;5200;43.236;27.986;2023-02-26T08:09:39;99301.41;;;14.07;86.54
10310;BME280;5200;43.236;27.986;2023-02-26T08:12:06;99275.84;;;13.99;86.03
10310;BME280;5200;43.236;27.986;2023-02-26T08:14:33;99307.50;;;14.30;85.41
10310;BME280;5200;43.236;27.986;2023-02-26T08:17:00;99289.31;;;14.27;84.55
10310;BME280;5200;43.236;27.986;2023-02-26T08:19:27;99298.50;;;14.40;83.43
10310;BME280;5200;43.236;27.986;2023-02-26T08:21:55;99308.31;;;14.54;82.38
10310;BME280;5200;43.236;27.986;2023-02-26T08:24:22;99291.09;;;14.58;81.04
10310;BME280;5200;43.236;27.986;2023-02-26T08:26:49;99299.84;;;14.73;79.96
10310;BME280;5200;43.236;27.986;2023-02-26T08:29:16;99299.13;;;14.79;79.55
10310;BME280;5200;43.236;27.986;2023-02-26T08:31:43;99254.28;;;14.63;78.41
10310;BME280;5200;43.236;27.986;2023-02-26T08:34:10;99308.09;;;14.93;77.87
10310;BME280;5200;43.236;27.986;2023-02-26T08:36:37;99304.69;;;14.99;77.28
10310;BME280;5200;43.236;27.986;2023-02-26T08:39:06;99299.47;;;15.06;76.70
10310;BME280;5200;43.236;27.986;2023-02-26T08:41:33;99270.06;;;15.01;76.34
10310;BME280;5200;43.236;27.986;2023-02-26T08:44:01;99293.00;;;15.09;75.96
10310;BME280;5200;43.236;27.986;2023-02-26T08:46:28;99308.50;;;15.27;75.35
10310;BME280;5200;43.236;27.986;2023-02-26T08:48:55;99287.66;;;15.38;74.62
10310;BME280;5200;43.236;27.986;2023-02-26T08:51:21;99285.25;;;15.43;73.63
10310;BME280;5200;43.236;27.986;2023-02-26T08:53:48;99285.59;;;15.55;73.18
10310;BME280;5200;43.236;27.986;2023-02-26T08:56:17;99300.19;;;15.81;72.04
10310;BME280;5200;43.236;27.986;2023-02-26T08:58:44;99297.38;;;15.89;71.83
10310;BME280;5200;43.236;27.986;2023-02-26T09:01:11;99277.56;;;15.85;71.08
10310;BME280;5200;43.236;27.986;2023-02-26T09:03:38;99294.53;;;16.12;70.03
10310;BME280;5200;43.236;27.986;2023-02-26T09:06:05;99289.53;;;16.24;68.99
10310;BME280;5200;43.236;27.986;2023-02-26T09:08:32;99300.03;;;16.32;68.66
10310;BME280;5200;43.236;27.986;2023-02-26T09:10:59;99289.03;;;16.35;68.06
10310;BME280;5200;43.236;27.986;2023-02-26T09:13:28;99282.97;;;16.48;67.44
10310;BME280;5200;43.236;27.986;2023-02-26T09:15:56;99292.09;;;16.67;66.62
10310;BME280;5200;43.236;27.986;2023-02-26T09:18:23;99281.44;;;16.60;66.24
10310;BME280;5200;43.236;27.986;2023-02-26T09:20:50;99298.84;;;16.91;66.04
10310;BME280;5200;43.236;27.986;2023-02-26T09:23:17;99311.81;;;17.14;65.46
10310;BME280;5200;43.236;27.986;2023-02-26T09:25:44;99301.47;;;17.32;64.37
10310;BME280;5200;43.236;27.986;2023-02-26T09:28:10;99307.63;;;17.40;63.67
10310;BME280;5200;43.236;27.986;2023-02-26T09:30:39;99313.00;;;17.53;63.51
10310;BME280;5200;43.236;27.986;2023-02-26T09:33:06;99304.22;;;17.66;62.61
10310;BME280;5200;43.236;27.986;2023-02-26T09:35:34;99291.38;;;17.69;62.21
10310;BME280;5200;43.236;27.986;2023-02-26T09:38:00;99298.13;;;17.79;61.40
10310;BME280;5200;43.236;27.986;2023-02-26T09:40:38;99294.50;;;17.86;61.66
10310;BME280;5200;43.236;27.986;2023-02-26T09:43:41;99307.44;;;18.09;60.74
10310;BME280;5200;43.236;27.986;2023-02-26T09:46:22;99299.03;;;18.19;60.09
10310;BME280;5200;43.236;27.986;2023-02-26T09:48:56;99271.56;;;17.92;59.85
10310;BME280;5200;43.236;27.986;2023-02-26T09:51:30;99321.72;;;17.88;60.56
10310;BME280;5200;43.236;27.986;2023-02-26T09:54:03;99316.81;;;17.85;60.82
10310;BME280;5200;43.236;27.986;2023-02-26T09:56:34;99284.44;;;17.82;61.31
10310;BME280;5200;43.236;27.986;2023-02-26T09:59:02;99303.72;;;18.10;60.68
10310;BME280;5200;43.236;27.986;2023-02-26T10:01:34;99292.66;;;18.20;59.77
10310;BME280;5200;43.236;27.986;2023-02-26T10:04:13;99255.41;;;17.93;59.46
10310;BME280;5200;43.236;27.986;2023-02-26T10:06:57;99292.25;;;17.90;60.07
10310;BME280;5200;43.236;27.986;2023-02-26T10:09:35;99281.41;;;17.91;60.22
10310;BME280;5200;43.236;27.986;2023-02-26T10:12:11;99266.88;;;17.81;60.14
10310;BME280;5200;43.236;27.986;2023-02-26T10:14:42;99278.13;;;17.83;59.95
10310;BME280;5200;43.236;27.986;2023-02-26T10:17:17;99276.47;;;17.82;60.26
10310;BME280;5200;43.236;27.986;2023-02-26T10:19:47;99291.44;;;17.83;59.91
10310;BME280;5200;43.236;27.986;2023-02-26T10:22:24;99256.34;;;17.59;60.42
10310;BME280;5200;43.236;27.986;2023-02-26T10:24:58;99289.31;;;17.71;60.81
10310;BME280;5200;43.236;27.986;2023-02-26T10:27:37;99261.06;;;17.57;60.74
10310;BME280;5200;43.236;27.986;2023-02-26T10:30:12;99296.03;;;17.61;61.17
10310;BME280;5200;43.236;27.986;2023-02-26T10:32:51;99295.78;;;17.49;61.33
10310;BME280;5200;43.236;27.986;2023-02-26T10:35:21;99290.03;;;17.39;61.70
10310;BME280;5200;43.236;27.986;2023-02-26T10:37:54;99299.41;;;17.28;62.80
10310;BME280;5200;43.236;27.986;2023-02-26T10:40:27;99297.94;;;17.19;62.77
10310;BME280;5200;43.236;27.986;2023-02-26T10:42:58;99289.09;;;17.11;63.18
10310;BME280;5200;43.236;27.986;2023-02-26T10:45:32;99285.41;;;17.06;63.58
10310;BME280;5200;43.236;27.986;2023-02-26T10:48:21;99296.00;;;16.99;63.92
10310;BME280;5200;43.236;27.986;2023-02-26T10:50:51;99289.66;;;16.94;64.31
10310;BME280;5200;43.236;27.986;2023-02-26T10:53:19;99299.06;;;16.96;64.09
10310;BME280;5200;43.236;27.986;2023-02-26T10:55:50;99270.56;;;16.83;63.95
10310;BME280;5200;43.236;27.986;2023-02-26T10:58:21;99265.66;;;16.80;64.55
10310;BME280;5200;43.236;27.986;2023-02-26T11:00:50;99248.00;;;16.73;64.45
10310;BME280;5200;43.236;27.986;2023-02-26T11:03:29;99278.47;;;16.77;64.72
10310;BME280;5200;43.236;27.986;2023-02-26T11:05:56;99254.50;;;16.63;64.70
10310;BME280;5200;43.236;27.986;2023-02-26T11:08:26;99297.22;;;16.68;64.89
10310;BME280;5200;43.236;27.986;2023-02-26T11:10:55;99301.09;;;16.66;64.72
10310;BME280;5200;43.236;27.986;2023-02-26T11:13:23;99294.44;;;16.48;65.22
10310;BME280;5200;43.236;27.986;2023-02-26T11:15:52;99303.81;;;16.44;65.70
10310;BME280;5200;43.236;27.986;2023-02-26T11:18:23;99293.69;;;16.33;65.91
10310;BME280;5200;43.236;27.986;2023-02-26T11:20:53;99301.47;;;16.35;66.34
10310;BME280;5200;43.236;27.986;2023-02-26T11:23:25;99300.63;;;16.27;66.44
10310;BME280;5200;43.236;27.986;2023-02-26T11:25:58;99280.00;;;16.08;66.83
10310;BME280;5200;43.236;27.986;2023-02-26T11:28:30;99275.66;;;16.00;67.24
10310;BME280;5200;43.236;27.986;2023-02-26T11:31:00;99253.81;;;15.98;67.57
10310;BME280;5200;43.236;27.986;2023-02-26T11:33:36;99279.59;;;16.04;67.75
10310;BME280;5200;43.236;27.986;2023-02-26T11:36:08;99259.25;;;15.90;68.23
10310;BME280;5200;43.236;27.986;2023-02-26T11:38:36;99253.06;;;15.83;68.02
10310;BME280;5200;43.236;27.986;2023-02-26T11:41:04;99263.03;;;16.02;68.30
10310;BME280;5200;43.236;27.986;2023-02-26T11:43:35;99255.59;;;15.91;67.86
10310;BME280;5200;43.236;27.986;2023-02-26T11:46:04;99277.28;;;16.01;67.99
10310;BME280;5200;43.236;27.986;2023-02-26T11:48:38;99269.03;;;15.90;68.02
10310;BME280;5200;43.236;27.986;2023-02-26T11:51:06;99274.78;;;15.93;68.09
10310;BME280;5200;43.236;27.986;2023-02-26T11:53:37;99308.78;;;16.04;67.90
10310;BME280;5200;43.236;27.986;2023-02-26T11:56:11;99308.94;;;15.81;67.81
10310;BME280;5200;43.236;27.986;2023-02-26T11:58:40;99314.72;;;15.34;69.09
10310;BME280;5200;43.236;27.986;2023-02-26T12:01:12;99319.56;;;14.86;71.24
10310;BME280;5200;43.236;27.986;2023-02-26T12:03:43;99309.28;;;14.53;73.57
10310;BME280;5200;43.236;27.986;2023-02-26T12:06:16;99284.03;;;14.27;74.56
10310;BME280;5200;43.236;27.986;2023-02-26T12:08:44;99279.19;;;14.16;75.68
10310;BME280;5200;43.236;27.986;2023-02-26T12:11:36;99280.53;;;14.12;76.30
10310;BME280;5200;43.236;27.986;2023-02-26T12:14:34;99293.34;;;14.23;76.64
10310;BME280;5200;43.236;27.986;2023-02-26T12:17:13;99273.53;;;14.19;76.82
10310;BME280;5200;43.236;27.986;2023-02-26T12:19:48;99282.97;;;14.36;76.79
10310;BME280;5200;43.236;27.986;2023-02-26T12:22:31;99292.84;;;14.43;76.41
10310;BME280;5200;43.236;27.986;2023-02-26T12:25:17;99291.75;;;14.52;75.55
10310;BME280;5200;43.236;27.986;2023-02-26T12:28:10;99265.66;;;14.49;74.65
10310;BME280;5200;43.236;27.986;2023-02-26T12:30:56;99282.88;;;14.83;73.51
10310;BME280;5200;43.236;27.986;2023-02-26T12:33:36;99250.34;;;15.04;72.19
10310;BME280;5200;43.236;27.986;2023-02-26T12:36:32;99235.84;;;15.21;70.10
10310;BME280;5200;43.236;27.986;2023-02-26T12:39:09;99267.44;;;15.52;68.76
10310;BME280;5200;43.236;27.986;2023-02-26T12:41:52;99279.06;;;15.73;68.07
10310;BME280;5200;43.236;27.986;2023-02-26T12:44:52;99257.34;;;15.84;67.21
10310;BME280;5200;43.236;27.986;2023-02-26T12:47:31;99271.06;;;15.88;66.89
10310;BME280;5200;43.236;27.986;2023-02-26T12:50:11;99290.31;;;15.96;66.48
10310;BME280;5200;43.236;27.986;2023-02-26T12:53:13;99260.31;;;15.96;66.29
10310;BME280;5200;43.236;27.986;2023-02-26T12:55:54;99282.56;;;15.95;66.10
10310;BME280;5200;43.236;27.986;2023-02-26T12:58:56;99284.38;;;15.94;66.33
10310;BME280;5200;43.236;27.986;2023-02-26T13:01:44;99293.59;;;15.98;66.48
10310;BME280;5200;43.236;27.986;2023-02-26T13:04:42;99287.03;;;15.94;66.19
10310;BME280;5200;43.236;27.986;2023-02-26T13:07:42;99284.94;;;15.90;66.24
10310;BME280;5200;43.236;27.986;2023-02-26T13:10:20;99300.03;;;15.89;66.03
10310;BME280;5200;43.236;27.986;2023-02-26T13:13:01;99269.72;;;15.77;65.96
10310;BME280;5200;43.236;27.986;2023-02-26T13:15:46;99294.31;;;15.85;66.22
10310;BME280;5200;43.236;27.986;2023-02-26T13:18:23;99288.28;;;15.77;66.58